CheckWX is a tool to help pilots better visualize weather data.  It is not intended as a substitute for an official pre-flight weather briefing.

14:34:38 UTC

KCQB METAR
Chandler Regional Airport
Chandler, Oklahoma, USA
Current

20 mins ago

KCQB 221415Z AUTO 18008KT 10SM OVC019 19/15 A3000 RMK AO2 T01870146
Observed
Apr-22 @ 14:15 UTC
Wind
  • 180° at 8 KTS
Visibility
10 SM
Flight Rules
MVFR
Cloud Levels
  • Overcast at 1,900' AGL
Temperature
19°C / 66°F
Dewpoint
15°C / 59°F
Humidity
78%
Altimeter
30" Hg
Pressure
1015.92 hPa
Previous

40 mins ago

KCQB 221355Z AUTO 18012KT 10SM SCT019 19/14 A3000 RMK AO2 T01890144
Observed
Apr-22 @ 13:55 UTC
Wind
  • 180° at 12 KTS
Visibility
10 SM
Flight Rules
VFR
Cloud Levels
  • Scattered at 1,900' AGL
Temperature
19°C / 66°F
Dewpoint
14°C / 57°F
Humidity
73%
Altimeter
30" Hg
Pressure
1015.92 hPa
Previous

60 mins ago

KCQB 221335Z AUTO 18011KT 10SM CLR 18/14 A2999 RMK AO2 T01830141
Observed
Apr-22 @ 13:35 UTC
Wind
  • 180° at 11 KTS
Visibility
10 SM
Flight Rules
VFR
Cloud Levels
  • Clear skies
Temperature
18°C / 64°F
Dewpoint
14°C / 57°F
Humidity
78%
Altimeter
29.99" Hg
Pressure
1015.62 hPa